Time,TemperatureF,DewpointF,PressureIn,WindDirection,WindDirectionDegrees,WindSpeedMPH,WindSpeedGustMPH,Humidity,HourlyPrecipIn,Conditions,Clouds,dailyrainin,SoftwareType,DateUTC
2013-02-17 00:02:00,26.4,21.1,29.71,NE,37,12.0,18.0,80,0.00,,,0.00,VWS V13.01,2013-02-17 05:02:00,
2013-02-17 00:32:00,26.7,22.2,29.68,NE,40,7.0,23.0,83,0.00,,,0.00,VWS V13.01,2013-02-17 05:32:00,
2013-02-17 01:02:00,26.8,22.0,29.65,NE,39,10.0,20.0,82,0.00,,,0.00,VWS V13.01,2013-02-17 06:02:00,
2013-02-17 01:32:00,26.9,21.6,29.63,NE,36,2.0,18.0,80,0.00,,,0.00,VWS V13.01,2013-02-17 06:32:00,
2013-02-17 02:02:00,26.6,20.1,29.63,NNE,22,14.0,20.0,76,0.00,,,0.00,VWS V13.01,2013-02-17 07:02:00,
2013-02-17 02:32:00,26.5,19.0,29.61,NE,41,12.0,20.0,73,0.00,,,0.00,VWS V13.01,2013-02-17 07:32:00,
2013-02-17 03:02:00,26.2,18.1,29.57,NNE,29,11.0,22.0,71,0.00,,,0.00,VWS V13.01,2013-02-17 08:02:00,
2013-02-17 03:32:00,25.7,17.6,29.58,NNW,337,11.0,20.0,71,0.00,,,0.00,VWS V13.01,2013-02-17 08:32:00,
2013-02-17 04:02:00,24.4,18.2,29.54,North,360,15.0,23.0,77,0.00,,,0.00,VWS V13.01,2013-02-17 09:02:00,
2013-02-17 04:32:00,24.3,18.4,29.52,NE,40,13.0,22.0,78,0.00,,,0.00,VWS V13.01,2013-02-17 09:32:00,
2013-02-17 05:32:00,24.1,18.2,29.47,North,360,8.0,30.0,78,0.00,,,0.00,VWS V13.01,2013-02-17 10:32:00,
2013-02-17 06:02:00,23.9,18.4,29.44,NNE,19,10.0,23.0,79,0.00,,,0.00,VWS V13.01,2013-02-17 11:02:00,
2013-02-17 06:32:00,23.8,18.5,29.42,NNE,26,7.0,21.0,80,0.00,,,0.00,VWS V13.01,2013-02-17 11:32:00,
2013-02-17 07:02:00,24.2,18.6,29.36,NNE,30,11.0,23.0,79,0.00,,,0.00,VWS V13.01,2013-02-17 12:02:00,
2013-02-17 07:32:00,24.4,19.1,29.35,NE,38,9.0,22.0,80,0.00,,,0.00,VWS V13.01,2013-02-17 12:32:00,
2013-02-17 08:02:00,24.5,19.2,29.33,NNE,26,10.0,19.0,80,0.00,,,0.00,VWS V13.01,2013-02-17 13:02:00,
2013-02-17 08:32:00,24.7,19.1,29.29,North,355,19.0,26.0,79,0.00,,,0.00,VWS V13.01,2013-02-17 13:32:00,
2013-02-17 09:02:00,25.0,19.4,29.26,North,11,23.0,29.0,79,0.00,,,0.00,VWS V13.01,2013-02-17 14:02:00,
2013-02-17 09:32:00,24.4,20.0,29.24,NNE,21,13.0,29.0,83,0.00,,,0.00,VWS V13.01,2013-02-17 14:32:00,
2013-02-17 10:02:00,24.5,20.1,29.20,North,355,17.0,33.0,83,0.00,,,0.00,VWS V13.01,2013-02-17 15:02:00,
2013-02-17 10:32:00,24.7,20.0,29.18,North,5,25.0,32.0,82,0.00,,,0.00,VWS V13.01,2013-02-17 15:32:00,
2013-02-17 11:02:00,24.7,20.0,29.15,North,360,27.0,38.0,82,0.00,,,0.00,VWS V13.01,2013-02-17 16:02:00,
2013-02-17 11:32:00,25.1,20.1,29.12,North,350,29.0,40.0,81,0.00,,,0.00,VWS V13.01,2013-02-17 16:32:00,
2013-02-17 12:02:00,25.1,20.1,29.08,North,9,38.0,52.0,81,0.00,,,0.00,VWS V13.01,2013-02-17 17:02:00,
2013-02-17 12:32:00,24.8,19.8,29.06,North,10,16.0,41.0,81,0.00,,,0.00,VWS V13.01,2013-02-17 17:32:00,
2013-02-17 13:02:00,24.3,18.7,29.04,North,11,33.0,47.0,79,0.00,,,0.00,VWS V13.01,2013-02-17 18:02:00,
2013-02-17 13:32:00,24.2,18.9,29.04,NNW,332,35.0,47.0,80,0.01,,,0.01,VWS V13.01,2013-02-17 18:32:00,
2013-02-17 14:02:00,24.4,18.8,29.04,North,355,22.0,47.0,79,0.01,,,0.01,VWS V13.01,2013-02-17 19:02:00,
2013-02-17 14:32:00,25.0,18.8,29.04,North,360,19.0,43.0,77,0.01,,,0.01,VWS V13.01,2013-02-17 19:32:00,
2013-02-17 15:02:00,25.0,18.2,29.04,North,355,33.0,46.0,75,0.00,,,0.01,VWS V13.01,2013-02-17 20:02:00,
2013-02-17 15:32:00,24.6,18.4,29.05,NNW,330,29.0,42.0,77,0.00,,,0.01,VWS V13.01,2013-02-17 20:32:00,
2013-02-17 16:02:00,24.3,18.1,29.06,NNE,25,18.0,46.0,77,0.00,,,0.01,VWS V13.01,2013-02-17 21:02:00,
2013-02-17 16:32:00,22.9,18.2,29.07,NNW,336,25.0,43.0,82,0.00,,,0.01,VWS V13.01,2013-02-17 21:32:00,
2013-02-17 17:02:00,23.6,17.5,29.09,North,360,27.0,40.0,77,0.00,,,0.01,VWS V13.01,2013-02-17 22:02:00,
2013-02-17 17:32:00,24.4,17.3,29.11,NNW,344,22.0,46.0,74,0.00,,,0.01,VWS V13.01,2013-02-17 22:32:00,
2013-02-17 18:02:00,21.7,15.9,29.14,NNW,334,20.0,38.0,78,0.00,,,0.01,VWS V13.01,2013-02-17 23:02:00,
2013-02-17 18:32:00,21.6,14.6,29.16,NNW,335,24.0,38.0,74,0.00,,,0.01,VWS V13.01,2013-02-17 23:32:00,
2013-02-17 19:02:00,21.5,14.5,29.17,NW,323,33.0,37.0,74,0.00,,,0.01,VWS V13.01,2013-02-18 00:02:00,
2013-02-17 19:32:00,21.5,14.8,29.19,NW,315,24.0,35.0,75,0.00,,,0.01,VWS V13.01,2013-02-18 00:32:00,
2013-02-17 20:02:00,21.0,14.6,29.20,NNW,337,21.0,36.0,76,0.00,,,0.01,VWS V13.01,2013-02-18 01:02:00,
2013-02-17 20:32:00,21.7,12.8,29.21,NNW,336,32.0,32.0,68,0.00,,,0.01,VWS V13.01,2013-02-18 01:32:00,
2013-02-17 21:02:00,22.5,12.2,29.23,NNW,327,17.0,35.0,64,0.00,,,0.01,VWS V13.01,2013-02-18 02:02:00,
2013-02-17 21:32:00,22.3,11.6,29.25,NW,325,23.0,34.0,63,0.00,,,0.01,VWS V13.01,2013-02-18 02:32:00,
2013-02-17 22:02:00,22.2,11.2,29.26,NNW,331,23.0,33.0,62,0.00,,,0.01,VWS V13.01,2013-02-18 03:02:00,
2013-02-17 22:32:00,22.2,11.2,29.27,North,349,23.0,33.0,62,0.00,,,0.01,VWS V13.01,2013-02-18 03:32:00,
2013-02-17 23:02:00,22.1,11.1,29.30,NW,319,21.0,34.0,62,0.00,,,0.01,VWS V13.01,2013-02-18 04:02:00,
2013-02-17 23:32:00,21.9,10.5,29.31,NNW,335,13.0,33.0,61,0.00,,,0.01,VWS V13.01,2013-02-18 04:32:00,